^^
Station Historical Data
 
Daily Summary for March 24, 2017 Units:  English    Metric   Both
« Previous Day
Next Day »
Daily Weekly Monthly Yearly Custom
  Current: High: Low: Average:
Temperature: 67.5 °F 75.7 °F 58.5 °F 68.4 °F
Dew Point: 59.3 °F 60.2 °F 53.7 °F 57.4 °F
Humidity: 75% 89% 49% 69%
Wind Speed: 2.0mph 12.0mph 0.0mph 4.8mph
Wind Gust: 6.0mph 26.0mph - -
WindEast - - ENE
Pressure: 30.27 in 30.34 in 30.23 in -
Precipitation: 0.00 in      
Historical Graphs
 
 
Tabular Data for March 24, 2017
Time Temperature Dew Point Pressure Wind Wind Speed Wind Gust Humidity Rainfall Rate (Hourly) solar Conditions
00:09 65.0 °F 58.3 °F 30.31 in ENE 3.0 mph 5.0 mph 79% 0.00 in 0.0 W/m2 OVC
00:19 65.0 °F 58.3 °F 30.31 in ENE 2.0 mph 6.0 mph 79% 0.00 in 0.0 W/m2 OVC
00:29 64.9 °F 58.2 °F 30.31 in ENE 1.0 mph 5.0 mph 79% 0.00 in 0.0 W/m2 OVC
00:39 64.8 °F 58.1 °F 30.31 in ENE 2.0 mph 5.0 mph 79% 0.00 in 0.0 W/m2 OVC
00:44 64.7 °F 58.0 °F 30.31 in ENE 2.0 mph 5.0 mph 79% 0.00 in 0.0 W/m2 OVC
00:49 64.6 °F 57.9 °F 30.31 in ENE 1.0 mph 4.0 mph 79% 0.00 in 0.0 W/m2 OVC
00:59 64.4 °F 57.7 °F 30.31 in ENE 1.0 mph 3.0 mph 79% 0.00 in 0.0 W/m2 OVC
01:09 64.1 °F 57.5 °F 30.31 in ENE 2.0 mph 4.0 mph 79% 0.00 in 0.0 W/m2 OVC
01:14 64.1 °F 57.8 °F 30.31 in ENE 1.0 mph 4.0 mph 80% 0.00 in 0.0 W/m2 OVC
01:19 64.2 °F 57.9 °F 30.31 in NE 2.0 mph 4.0 mph 80% 0.00 in 0.0 W/m2 OVC
01:29 64.3 °F 57.7 °F 30.31 in ENE 2.0 mph 4.0 mph 79% 0.00 in 0.0 W/m2 OVC
01:39 64.5 °F 57.8 °F 30.31 in ENE 2.0 mph 4.0 mph 79% 0.00 in 0.0 W/m2 OVC
01:49 64.4 °F 57.7 °F 30.30 in ENE 2.0 mph 6.0 mph 79% 0.00 in 0.0 W/m2 OVC
01:59 64.3 °F 57.6 °F 30.30 in ENE 2.0 mph 4.0 mph 79% 0.00 in 0.0 W/m2 OVC
02:09 64.1 °F 57.8 °F 30.30 in ENE 1.0 mph 5.0 mph 80% 0.00 in 0.0 W/m2 BKN
02:14 64.0 °F 57.7 °F 30.30 in ENE 1.0 mph 26.0 mph 80% 0.00 in 0.0 W/m2 BKN
02:19 63.8 °F 57.5 °F 30.29 in ENE 1.0 mph 2.0 mph 80% 0.00 in 0.0 W/m2 BKN
02:29 63.7 °F 57.4 °F 30.29 in East 2.0 mph 4.0 mph 80% 0.00 in 0.0 W/m2 BKN
02:39 63.6 °F 57.4 °F 30.29 in ENE 2.0 mph 4.0 mph 80% 0.00 in 0.0 W/m2 BKN
02:49 63.6 °F 57.3 °F 30.29 in ENE 2.0 mph 4.0 mph 80% 0.00 in 0.0 W/m2 BKN
02:59 63.6 °F 57.0 °F 30.29 in ENE 3.0 mph 5.0 mph 79% 0.00 in 0.0 W/m2 BKN
03:09 63.5 °F 56.9 °F 30.29 in ENE 1.0 mph 4.0 mph 79% 0.00 in 0.0 W/m2 CLR
03:14 63.3 °F 57.1 °F 30.29 in ENE 1.0 mph 3.0 mph 80% 0.00 in 0.0 W/m2 CLR
03:19 63.2 °F 56.6 °F 30.29 in East 1.0 mph 4.0 mph 79% 0.00 in 0.0 W/m2 CLR
03:29 63.0 °F 56.4 °F 30.28 in ENE 1.0 mph 3.0 mph 79% 0.00 in 0.0 W/m2 CLR
03:39 62.9 °F 56.6 °F 30.28 in ENE 1.0 mph 3.0 mph 80% 0.00 in 0.0 W/m2 CLR
03:44 62.8 °F 56.5 °F 30.27 in ENE 1.0 mph 3.0 mph 80% 0.00 in 0.0 W/m2 CLR
03:49 62.6 °F 56.4 °F 30.27 in ENE 1.0 mph 3.0 mph 80% 0.00 in 0.0 W/m2 CLR
03:59 62.5 °F 56.2 °F 30.27 in East 1.0 mph 3.0 mph 80% 0.00 in 0.0 W/m2 CLR
04:09 62.2 °F 56.0 °F 30.27 in ENE 1.0 mph 3.0 mph 80% 0.00 in 0.0 W/m2 CLR
04:14 62.3 °F 56.0 °F 30.27 in ENE 1.0 mph 3.0 mph 80% 0.00 in 0.0 W/m2 CLR
04:19 62.2 °F 56.0 °F 30.27 in Calm   2.0 mph 80% 0.00 in 0.0 W/m2 CLR
04:29 62.0 °F 56.1 °F 30.27 in Calm   2.0 mph 81% 0.00 in 0.0 W/m2 CLR
04:39 61.4 °F 55.9 °F 30.27 in Calm   1.0 mph 82% 0.00 in 0.0 W/m2 CLR
04:44 61.1 °F 55.6 °F 30.27 in Calm   1.0 mph 82% 0.00 in 0.0 W/m2 CLR
04:49 60.9 °F 55.7 °F 30.27 in Calm     83% 0.00 in 0.0 W/m2 CLR
04:59 60.8 °F 55.6 °F 30.27 in Calm     83% 0.00 in 0.0 W/m2 CLR
05:09 60.2 °F 55.0 °F 30.27 in Calm     83% 0.00 in 0.0 W/m2 CLR
05:14 59.8 °F 55.0 °F 30.27 in Calm     84% 0.00 in 0.0 W/m2 CLR
05:19 59.5 °F 55.0 °F 30.27 in Calm     85% 0.00 in 0.0 W/m2 CLR
05:29 59.1 °F 55.2 °F 30.27 in Calm     87% 0.00 in 0.0 W/m2 CLR
05:39 58.8 °F 55.2 °F 30.28 in Calm     88% 0.00 in 0.0 W/m2 CLR
05:44 58.7 °F 55.2 °F 30.28 in Calm     88% 0.00 in 0.0 W/m2 CLR
05:49 58.7 °F 55.5 °F 30.28 in Calm   1.0 mph 89% 0.00 in 0.0 W/m2 CLR
05:59 58.5 °F 55.3 °F 30.29 in Calm     89% 0.00 in 0.0 W/m2 CLR
06:09 58.6 °F 55.4 °F 30.29 in Calm   1.0 mph 89% 0.00 in 0.0 W/m2 BKN
06:19 59.4 °F 56.1 °F 30.29 in Calm   2.0 mph 89% 0.00 in 0.0 W/m2 BKN
06:29 59.3 °F 55.7 °F 30.30 in Calm   1.0 mph 88% 0.00 in 0.0 W/m2 BKN
06:39 59.2 °F 55.6 °F 30.30 in Calm     88% 0.00 in 0.0 W/m2 BKN
06:44 59.4 °F 55.8 °F 30.30 in Calm   1.0 mph 88% 0.00 in 0.0 W/m2 BKN
06:49 59.6 °F 56.0 °F 30.30 in Calm   1.0 mph 88% 0.00 in 0.0 W/m2 BKN
06:59 59.9 °F 56.0 °F 30.31 in Calm     87% 0.00 in 0.0 W/m2 BKN
07:09 59.8 °F 55.9 °F 30.31 in Calm   1.0 mph 87% 0.00 in 0.0 W/m2 OVC
07:19 60.1 °F 56.2 °F 30.31 in Calm   1.0 mph 87% 0.00 in 0.0 W/m2 OVC
07:29 60.2 °F 56.0 °F 30.31 in Calm   1.0 mph 86% 0.00 in 0.0 W/m2 OVC
07:39 59.8 °F 55.9 °F 30.31 in Calm   1.0 mph 87% 0.00 in 0.0 W/m2 OVC
07:44 59.8 °F 55.9 °F 30.31 in Calm   1.0 mph 87% 0.00 in 0.0 W/m2 OVC
07:49 59.8 °F 56.3 °F 30.32 in Calm   1.0 mph 88% 0.00 in 0.0 W/m2 OVC
07:59 60.8 °F 56.5 °F 30.32 in ENE 1.0 mph 2.0 mph 86% 0.00 in 0.0 W/m2 OVC
08:09 62.0 °F 57.1 °F 30.32 in NE 1.0 mph 4.0 mph 84% 0.00 in 0.0 W/m2 CLR
08:19 62.9 °F 57.0 °F 30.32 in ENE 1.0 mph 2.0 mph 81% 0.00 in 0.0 W/m2 CLR
08:29 63.9 °F 57.3 °F 30.32 in ENE 2.0 mph 4.0 mph 79% 0.00 in 0.0 W/m2 CLR
08:39 65.0 °F 57.6 °F 30.32 in ENE 2.0 mph 5.0 mph 77% 0.00 in 0.0 W/m2 CLR
08:49 66.1 °F 57.6 °F 30.33 in ENE 2.0 mph 4.0 mph 74% 0.00 in 0.0 W/m2 CLR
08:59 67.0 °F 57.3 °F 30.32 in ENE 5.0 mph 8.0 mph 71% 0.00 in 0.0 W/m2 CLR
09:09 68.0 °F 57.5 °F 30.32 in ENE 3.0 mph 7.0 mph 69% 0.00 in 0.0 W/m2 CLR
09:14 68.3 °F 57.4 °F 30.32 in ENE 5.0 mph 7.0 mph 68% 0.00 in 0.0 W/m2 CLR
09:19 68.6 °F 57.6 °F 30.33 in ENE 5.0 mph 8.0 mph 68% 0.00 in 0.0 W/m2 CLR
09:29 69.2 °F 57.8 °F 30.33 in ENE 6.0 mph 13.0 mph 67% 0.00 in 0.0 W/m2 CLR
09:39 69.7 °F 57.4 °F 30.33 in ENE 3.0 mph 8.0 mph 65% 0.00 in 0.0 W/m2 CLR
09:49 70.3 °F 58.0 °F 30.33 in ENE 3.0 mph 10.0 mph 65% 0.00 in 0.0 W/m2 CLR
09:59 71.0 °F 57.8 °F 30.33 in ENE 7.0 mph 17.0 mph 63% 0.00 in 0.0 W/m2 CLR
10:09 70.9 °F 56.3 °F 30.33 in ENE 9.0 mph 22.0 mph 60% 0.00 in 0.0 W/m2 CLR
10:14 71.4 °F 55.9 °F 30.33 in East 7.0 mph 22.0 mph 58% 0.00 in 0.0 W/m2 CLR
10:19 72.2 °F 56.2 °F 30.33 in East 7.0 mph 14.0 mph 57% 0.00 in 0.0 W/m2 CLR
10:29 72.8 °F 54.7 °F 30.33 in East 10.0 mph 18.0 mph 53% 0.00 in 0.0 W/m2 CLR
10:39 73.0 °F 54.9 °F 30.33 in East 8.0 mph 16.0 mph 53% 0.00 in 0.0 W/m2 CLR
10:44 73.4 °F 54.7 °F 30.33 in East 8.0 mph 20.0 mph 52% 0.00 in 0.0 W/m2 CLR
10:49 73.4 °F 54.2 °F 30.33 in East 10.0 mph 20.0 mph 51% 0.00 in 0.0 W/m2 CLR
10:59 73.5 °F 54.3 °F 30.33 in East 9.0 mph 16.0 mph 51% 0.00 in 0.0 W/m2 CLR
11:09 73.9 °F 54.6 °F 30.34 in East 8.0 mph 20.0 mph 51% 0.00 in 0.0 W/m2 SCT
11:14 74.0 °F 53.7 °F 30.33 in East 9.0 mph 20.0 mph 49% 0.00 in 0.0 W/m2 SCT
11:19 74.3 °F 55.0 °F 30.34 in East 12.0 mph 20.0 mph 51% 0.00 in 0.0 W/m2 SCT
11:29 74.0 °F 55.8 °F 30.34 in ENE 8.0 mph 22.0 mph 53% 0.00 in 0.0 W/m2 SCT
11:39 73.0 °F 55.4 °F 30.34 in East 10.0 mph 21.0 mph 54% 0.00 in 0.0 W/m2 SCT
11:44 73.1 °F 56.0 °F 30.34 in East 10.0 mph 20.0 mph 55% 0.00 in 0.0 W/m2 SCT
11:49 73.1 °F 56.9 °F 30.34 in ENE 9.0 mph 20.0 mph 57% 0.00 in 0.0 W/m2 SCT
11:59 73.4 °F 56.8 °F 30.34 in ENE 9.0 mph 15.0 mph 56% 0.00 in 0.0 W/m2 SCT
12:09 73.6 °F 56.4 °F 30.33 in ENE 10.0 mph 20.0 mph 55% 0.00 in 0.0 W/m2 OVC
12:14 73.7 °F 57.5 °F 30.33 in ENE 7.0 mph 15.0 mph 57% 0.00 in 0.0 W/m2 OVC
12:19 73.7 °F 57.1 °F 30.33 in ENE 9.0 mph 20.0 mph 56% 0.00 in 0.0 W/m2 OVC
12:29 74.3 °F 57.1 °F 30.33 in ENE 5.0 mph 22.0 mph 55% 0.00 in 0.0 W/m2 OVC
12:39 74.2 °F 56.5 °F 30.33 in ENE 10.0 mph 17.0 mph 54% 0.00 in 0.0 W/m2 OVC
12:44 74.2 °F 56.5 °F 30.33 in ENE 7.0 mph 22.0 mph 54% 0.00 in 0.0 W/m2 OVC
12:49 74.4 °F 57.2 °F 30.33 in ENE 7.0 mph 14.0 mph 55% 0.00 in 0.0 W/m2 OVC
12:59 74.3 °F 56.5 °F 30.33 in East 10.0 mph 20.0 mph 54% 0.00 in 0.0 W/m2 OVC
13:09 73.7 °F 56.5 °F 30.32 in ENE 10.0 mph 20.0 mph 55% 0.00 in 0.0 W/m2 BKN
13:19 73.3 °F 56.7 °F 30.32 in ENE 8.0 mph 18.0 mph 56% 0.00 in 0.0 W/m2 BKN
13:29 74.8 °F 57.6 °F 30.32 in East 12.0 mph 17.0 mph 55% 0.00 in 0.0 W/m2 BKN
13:39 75.0 °F 58.2 °F 30.31 in ENE 10.0 mph 22.0 mph 56% 0.00 in 0.0 W/m2 BKN
13:49 73.7 °F 58.0 °F 30.31 in ENE 10.0 mph 18.0 mph 58% 0.00 in 0.0 W/m2 BKN
13:59 73.9 °F 58.7 °F 30.30 in ENE 9.0 mph 20.0 mph 59% 0.00 in 0.0 W/m2 BKN
14:09 74.1 °F 58.4 °F 30.30 in East 8.0 mph 20.0 mph 58% 0.00 in 0.0 W/m2 OVC
14:19 74.4 °F 59.1 °F 30.29 in ENE 9.0 mph 13.0 mph 59% 0.00 in 0.0 W/m2 OVC
14:29 73.7 °F 59.4 °F 30.29 in NE 10.0 mph 18.0 mph 61% 0.00 in 0.0 W/m2 OVC
14:39 74.6 °F 58.4 °F 30.29 in East 7.0 mph 16.0 mph 57% 0.00 in 0.0 W/m2 OVC
14:44 74.7 °F 59.4 °F 30.28 in ENE 9.0 mph 16.0 mph 59% 0.00 in 0.0 W/m2 OVC
14:49 74.9 °F 59.6 °F 30.28 in ENE 9.0 mph 20.0 mph 59% 0.00 in 0.0 W/m2 OVC
14:59 75.7 °F 59.3 °F 30.28 in ENE 10.0 mph 18.0 mph 57% 0.00 in 0.0 W/m2 OVC
15:09 75.1 °F 58.8 °F 30.28 in ENE 10.0 mph 20.0 mph 57% 0.00 in 0.0 W/m2 BKN
15:14 75.0 °F 60.2 °F 30.28 in ENE 9.0 mph 18.0 mph 60% 0.00 in 0.0 W/m2 BKN
15:19 74.1 °F 60.2 °F 30.27 in ENE 9.0 mph 21.0 mph 62% 0.00 in 0.0 W/m2 BKN
15:29 73.5 °F 60.1 °F 30.27 in East 7.0 mph 20.0 mph 63% 0.00 in 0.0 W/m2 BKN
15:39 74.5 °F 60.2 °F 30.27 in ENE 9.0 mph 16.0 mph 61% 0.00 in 0.0 W/m2 BKN
15:49 74.5 °F 60.2 °F 30.26 in ENE 12.0 mph 21.0 mph 61% 0.00 in 0.0 W/m2 BKN
15:54 74.5 °F 60.1 °F 30.26 in ENE 8.0 mph 20.0 mph 61% 0.00 in 0.0 W/m2 BKN
15:59 74.7 °F 59.9 °F 30.26 in ENE 9.0 mph 15.0 mph 60% 0.00 in 0.0 W/m2 BKN
16:09 74.4 °F 59.6 °F 30.26 in East 10.0 mph 20.0 mph 60% 0.00 in 0.0 W/m2 BKN
16:14 73.5 °F 59.7 °F 30.26 in East 10.0 mph 21.0 mph 62% 0.00 in 0.0 W/m2 BKN
16:19 73.4 °F 59.6 °F 30.26 in ENE 8.0 mph 16.0 mph 62% 0.00 in 0.0 W/m2 BKN
16:29 74.9 °F 60.1 °F 30.26 in East 8.0 mph 16.0 mph 60% 0.00 in 0.0 W/m2 BKN
16:39 74.4 °F 60.1 °F 30.25 in East 6.0 mph 16.0 mph 61% 0.00 in 0.0 W/m2 BKN
16:49 74.6 °F 59.3 °F 30.25 in East 12.0 mph 20.0 mph 59% 0.00 in 0.0 W/m2 BKN
16:59 74.5 °F 58.7 °F 30.24 in East 9.0 mph 18.0 mph 58% 0.00 in 0.0 W/m2 BKN
17:09 74.0 °F 57.8 °F 30.24 in ENE 9.0 mph 20.0 mph 57% 0.00 in 0.0 W/m2 OVC
17:14 73.9 °F 57.2 °F 30.24 in East 9.0 mph 15.0 mph 56% 0.00 in 0.0 W/m2 OVC
17:19 74.1 °F 57.4 °F 30.24 in ENE 12.0 mph 16.0 mph 56% 0.00 in 0.0 W/m2 OVC
17:29 74.3 °F 57.1 °F 30.24 in East 9.0 mph 20.0 mph 55% 0.00 in 0.0 W/m2 OVC
17:39 73.5 °F 56.8 °F 30.24 in ENE 8.0 mph 21.0 mph 56% 0.00 in 0.0 W/m2 OVC
17:44 73.8 °F 57.1 °F 30.24 in ENE 8.0 mph 21.0 mph 56% 0.00 in 0.0 W/m2 OVC
17:49 73.9 °F 56.8 °F 30.24 in East 7.0 mph 21.0 mph 55% 0.00 in 0.0 W/m2 OVC
17:59 74.2 °F 55.4 °F 30.23 in ENE 7.0 mph 20.0 mph 52% 0.00 in 0.0 W/m2 OVC
18:09 74.1 °F 55.3 °F 30.23 in East 8.0 mph 15.0 mph 52% 0.00 in 0.0 W/m2 OVC
18:14 74.0 °F 55.8 °F 30.23 in ENE 6.0 mph 17.0 mph 53% 0.00 in 0.0 W/m2 OVC
18:19 73.7 °F 56.6 °F 30.24 in ENE 12.0 mph 22.0 mph 55% 0.00 in 0.0 W/m2 OVC
18:29 73.7 °F 57.5 °F 30.24 in ENE 6.0 mph 17.0 mph 57% 0.00 in 0.0 W/m2 OVC
18:39 73.6 °F 58.4 °F 30.24 in ENE 6.0 mph 13.0 mph 59% 0.00 in 0.0 W/m2 OVC
18:44 73.6 °F 58.9 °F 30.24 in ENE 8.0 mph 13.0 mph 60% 0.00 in 0.0 W/m2 OVC
18:49 73.0 °F 58.8 °F 30.24 in East 9.0 mph 15.0 mph 61% 0.00 in 0.0 W/m2 OVC
18:59 72.2 °F 58.0 °F 30.24 in ENE 7.0 mph 18.0 mph 61% 0.00 in 0.0 W/m2 OVC
19:09 71.6 °F 57.9 °F 30.24 in East 7.0 mph 13.0 mph 62% 0.00 in 0.0 W/m2 OVC
19:14 71.4 °F 58.2 °F 30.24 in East 8.0 mph 13.0 mph 63% 0.00 in 0.0 W/m2 OVC
19:19 71.2 °F 58.8 °F 30.24 in ENE 8.0 mph 15.0 mph 65% 0.00 in 0.0 W/m2 OVC
19:29 70.9 °F 59.4 °F 30.24 in East 6.0 mph 15.0 mph 67% 0.00 in 0.0 W/m2 OVC
19:39 70.6 °F 59.5 °F 30.24 in East 5.0 mph 10.0 mph 68% 0.00 in 0.0 W/m2 OVC
19:49 70.3 °F 59.2 °F 30.25 in East 6.0 mph 14.0 mph 68% 0.00 in 0.0 W/m2 OVC
19:59 70.0 °F 59.4 °F 30.25 in East 6.0 mph 12.0 mph 69% 0.00 in 0.0 W/m2 OVC
20:09 69.8 °F 59.9 °F 30.25 in East 2.0 mph 8.0 mph 71% 0.00 in 0.0 W/m2 FEW
20:14 69.6 °F 59.8 °F 30.25 in East 3.0 mph 7.0 mph 71% 0.00 in 0.0 W/m2 FEW
20:19 69.5 °F 60.0 °F 30.25 in East 2.0 mph 10.0 mph 72% 0.00 in 0.0 W/m2 FEW
20:29 69.1 °F 60.1 °F 30.25 in East 5.0 mph 8.0 mph 73% 0.00 in 0.0 W/m2 FEW
20:39 68.9 °F 59.9 °F 30.25 in ENE 3.0 mph 10.0 mph 73% 0.00 in 0.0 W/m2 FEW
20:44 68.8 °F 59.8 °F 30.25 in ENE 2.0 mph 8.0 mph 73% 0.00 in 0.0 W/m2 FEW
20:49 68.7 °F 59.7 °F 30.25 in East 3.0 mph 5.0 mph 73% 0.00 in 0.0 W/m2 FEW
20:59 68.5 °F 59.9 °F 30.26 in East 3.0 mph 12.0 mph 74% 0.00 in 0.0 W/m2 FEW
21:09 68.3 °F 59.7 °F 30.26 in East 3.0 mph 7.0 mph 74% 0.00 in 0.0 W/m2 FEW
21:14 68.1 °F 59.5 °F 30.26 in East 3.0 mph 7.0 mph 74% 0.00 in 0.0 W/m2 FEW
21:19 68.1 °F 59.5 °F 30.26 in East 5.0 mph 7.0 mph 74% 0.00 in 0.0 W/m2 FEW
21:29 67.9 °F 59.7 °F 30.26 in East 3.0 mph 6.0 mph 75% 0.00 in 0.0 W/m2 FEW
21:39 67.7 °F 59.4 °F 30.27 in East 2.0 mph 9.0 mph 75% 0.00 in 0.0 W/m2 FEW
21:49 67.5 °F 59.3 °F 30.27 in East 2.0 mph 6.0 mph 75% 0.00 in 0.0 W/m2 FEW
Lake Mary, FL, USA
Compliments of Weather Underground - 1.5 mb